Time;durP1;ratioP1;P1;durP2;ratioP2;P2;SDS_P1;SDS_P2;PMS_P1;PMS_P2;Temp;Humidity;BMP_temperature;BMP_pressure;BME280_temperature;BME280_humidity;BME280_pressure;Samples;Min_cycle;Max_cycle;Signal;HPM_P1;HPM_P2
2023/10/25 00:00:33;;;;;;;6.72;4.85;;;;;;;7.68;100.00;100002.16;4993738;28;20501;-66
2023/10/25 00:02:58;;;;;;;8.20;5.00;;;;;;;7.68;100.00;99997.00;5013774;28;20017;-67
2023/10/25 00:05:23;;;;;;;10.73;5.22;;;;;;;7.66;100.00;99997.78;5015326;28;20049;-66
2023/10/25 00:07:48;;;;;;;10.82;5.55;;;;;;;7.63;100.00;99998.56;5023792;28;20389;-66
2023/10/25 00:10:14;;;;;;;10.77;5.45;;;;;;;7.63;100.00;100002.81;5001571;28;20018;-66
2023/10/25 00:12:39;;;;;;;6.18;4.03;;;;;;;7.60;100.00;99993.31;5024071;28;20026;-67
2023/10/25 00:15:05;;;;;;;7.60;4.78;;;;;;;7.59;100.00;99991.53;5007886;28;20072;-67
2023/10/25 00:17:30;;;;;;;6.10;3.67;;;;;;;7.60;100.00;99987.28;5008041;28;20025;-66
2023/10/25 00:19:56;;;;;;;8.25;4.30;;;;;;;7.57;100.00;99982.91;5009712;28;20030;-67
2023/10/25 00:22:21;;;;;;;8.63;4.13;;;;;;;7.54;100.00;99986.25;5007767;28;20026;-67
2023/10/25 00:24:46;;;;;;;7.50;3.53;;;;;;;7.53;100.00;99986.22;5007611;28;20235;-67
2023/10/25 00:27:11;;;;;;;6.68;3.90;;;;;;;7.51;100.00;99978.44;5007588;28;20022;-66
2023/10/25 00:29:37;;;;;;;10.40;3.58;;;;;;;7.51;100.00;99978.44;4998622;28;20092;-66
2023/10/25 00:32:04;;;;;;;10.35;3.72;;;;;;;7.49;100.00;99982.66;5004997;28;20381;-66
2023/10/25 00:34:29;;;;;;;7.45;4.03;;;;;;;7.47;100.00;99983.44;5008495;28;20026;-65
2023/10/25 00:36:55;;;;;;;8.27;3.47;;;;;;;7.44;100.00;99985.13;5007961;28;20288;-66
2023/10/25 00:39:20;;;;;;;10.38;4.15;;;;;;;7.45;100.00;99989.44;5020065;28;20041;-66
2023/10/25 00:41:45;;;;;;;5.57;3.50;;;;;;;7.43;100.00;99991.06;5016095;28;20547;-66
2023/10/25 00:44:10;;;;;;;5.30;2.97;;;;;;;7.42;100.00;99991.91;4994842;28;20057;-66
2023/10/25 00:46:36;;;;;;;6.88;3.63;;;;;;;7.41;100.00;99982.41;5007025;28;20083;-67
2023/10/25 00:49:02;;;;;;;8.15;2.90;;;;;;;7.40;100.00;99991.00;5013380;28;20025;-67
2023/10/25 00:51:29;;;;;;;8.18;3.50;;;;;;;7.40;100.00;99988.41;5006589;28;20034;-66
2023/10/25 00:53:55;;;;;;;9.00;3.10;;;;;;;7.37;100.00;99985.75;5020029;28;20083;-66
2023/10/25 00:56:23;;;;;;;5.78;3.15;;;;;;;7.38;100.00;99987.47;5016109;28;20473;-66
2023/10/25 00:58:51;;;;;;;13.75;3.60;;;;;;;7.38;100.00;99986.59;5005942;28;20026;-66
2023/10/25 01:01:19;;;;;;;5.93;3.92;;;;;;;7.38;100.00;99986.59;5007108;28;20041;-66
2023/10/25 01:03:44;;;;;;;6.40;3.38;;;;;;;7.36;100.00;99977.97;5006411;28;20034;-66
2023/10/25 01:06:10;;;;;;;6.47;3.13;;;;;;;7.35;100.00;99971.94;5005693;28;20033;-65
2023/10/25 01:08:36;;;;;;;6.63;2.85;;;;;;;7.34;100.00;99980.47;5004315;28;20041;-66
2023/10/25 01:11:01;;;;;;;8.43;3.33;;;;;;;7.33;100.00;99971.88;5007038;28;20033;-66
2023/10/25 01:13:26;;;;;;;7.88;3.60;;;;;;;7.33;100.00;99971.00;4995411;28;20109;-66
2023/10/25 01:15:52;;;;;;;6.10;2.72;;;;;;;7.32;100.00;99962.38;5018877;28;20879;-66
2023/10/25 01:18:17;;;;;;;8.85;3.38;;;;;;;7.32;100.00;99961.53;5016141;28;20057;-67
2023/10/25 01:20:43;;;;;;;8.93;3.47;;;;;;;7.31;100.00;99964.91;5023019;28;20029;-66
2023/10/25 01:23:09;;;;;;;7.60;3.03;;;;;;;7.29;100.00;99958.84;5006231;28;20022;-64
2023/10/25 01:25:34;;;;;;;9.52;2.80;;;;;;;7.30;100.00;99968.34;5006599;28;20048;-66
2023/10/25 01:28:00;;;;;;;4.88;2.80;;;;;;;7.29;100.00;99956.25;5009283;28;20500;-66
2023/10/25 01:30:26;;;;;;;9.82;3.03;;;;;;;7.27;100.00;99955.31;5022944;28;20029;-66
2023/10/25 01:32:52;;;;;;;8.70;2.78;;;;;;;7.25;100.00;99949.28;5010829;28;20117;-66
2023/10/25 01:35:18;;;;;;;7.93;3.17;;;;;;;7.26;100.00;99935.56;5008341;28;20030;-67
2023/10/25 01:37:43;;;;;;;4.70;2.50;;;;;;;7.26;100.00;99932.97;5022814;28;20045;-66
2023/10/25 01:40:09;;;;;;;9.32;2.97;;;;;;;7.26;100.00;99926.13;5002472;28;20092;-67
2023/10/25 01:42:35;;;;;;;10.75;2.42;;;;;;;7.26;100.00;99926.13;5007235;28;20073;-66
2023/10/25 01:45:03;;;;;;;5.55;3.00;;;;;;;7.26;100.00;99923.56;5010290;28;20473;-67
2023/10/25 01:47:29;;;;;;;4.45;2.47;;;;;;;7.24;100.00;99917.47;5012801;28;20044;-66
2023/10/25 01:49:54;;;;;;;5.38;2.72;;;;;;;7.22;100.00;99921.69;5030219;28;20029;-67
2023/10/25 01:52:19;;;;;;;4.78;2.50;;;;;;;7.21;100.00;99917.38;5012692;28;20033;-65
2023/10/25 01:54:46;;;;;;;7.40;3.17;;;;;;;7.20;100.00;99916.50;5010865;28;20029;-66
2023/10/25 01:57:11;;;;;;;4.82;2.90;;;;;;;7.20;100.00;99915.63;5010677;28;20085;-66
2023/10/25 01:59:37;;;;;;;3.80;2.30;;;;;;;7.18;100.00;99907.84;5009808;28;20033;-65
2023/10/25 02:02:02;;;;;;;6.25;3.63;;;;;;;7.16;100.00;99901.75;5010390;28;20036;-66
2023/10/25 02:04:27;;;;;;;8.65;2.72;;;;;;;7.17;100.00;99906.09;5009824;28;20508;-66
2023/10/25 02:06:53;;;;;;;7.95;2.97;;;;;;;7.16;100.00;99899.19;5009988;28;20056;-67
2023/10/25 02:09:18;;;;;;;7.18;2.78;;;;;;;7.16;100.00;99899.19;5025184;28;20104;-66
2023/10/25 02:11:44;;;;;;;4.90;2.90;;;;;;;7.17;100.00;99900.94;5003976;28;20029;-67
2023/10/25 02:14:09;;;;;;;3.70;2.30;;;;;;;7.19;100.00;99895.84;5012637;28;20030;-67
2023/10/25 02:16:34;;;;;;;5.22;2.72;;;;;;;7.20;100.00;99895.88;5019941;28;20496;-65
2023/10/25 02:19:00;;;;;;;5.65;2.83;;;;;;;7.20;100.00;99890.72;5014326;28;20026;-66
2023/10/25 02:21:25;;;;;;;7.03;2.90;;;;;;;7.21;100.00;99897.63;5009447;28;20437;-66
2023/10/25 02:23:50;;;;;;;6.00;2.72;;;;;;;7.21;100.00;99892.47;5009126;28;20120;-67
2023/10/25 02:26:16;;;;;;;7.93;2.80;;;;;;;7.20;100.00;99877.84;5010484;28;20036;-66
2023/10/25 02:28:41;;;;;;;8.45;3.08;;;;;;;7.20;100.00;99884.69;5009727;28;20041;-67
2023/10/25 02:31:06;;;;;;;4.70;3.22;;;;;;;7.18;100.00;99879.50;5009978;28;20029;-66
2023/10/25 02:33:31;;;;;;;5.88;3.20;;;;;;;7.16;100.00;99870.84;5009504;28;20033;-66
2023/10/25 02:35:57;;;;;;;9.20;3.47;;;;;;;7.14;100.00;99876.78;5003729;28;20025;-67
2023/10/25 02:38:22;;;;;;;4.78;2.80;;;;;;;7.13;100.00;99870.75;5015632;28;20132;-65
2023/10/25 02:40:47;;;;;;;6.72;3.80;;;;;;;7.13;100.00;99868.19;5012930;28;20117;-66
2023/10/25 02:43:13;;;;;;;5.72;3.25;;;;;;;7.13;100.00;99860.44;5005826;28;20482;-66
2023/10/25 02:45:38;;;;;;;7.00;3.22;;;;;;;7.10;100.00;99862.94;5004929;28;20034;-66
2023/10/25 02:48:04;;;;;;;7.60;3.20;;;;;;;7.10;100.00;99852.63;5004414;28;20022;-66
2023/10/25 02:50:30;;;;;;;5.53;2.97;;;;;;;7.08;100.00;99849.13;4997782;28;20041;-66
2023/10/25 02:52:55;;;;;;;7.47;3.58;;;;;;;7.07;100.00;99850.81;4997828;28;20029;-66
2023/10/25 02:55:20;;;;;;;4.15;2.75;;;;;;;7.06;100.00;99846.50;5003663;28;20014;-66
2023/10/25 02:57:45;;;;;;;5.55;3.05;;;;;;;7.05;100.00;99847.31;5000311;28;20458;-66
2023/10/25 03:00:11;;;;;;;5.88;3.33;;;;;;;7.06;100.00;99843.06;5002371;28;20096;-66
2023/10/25 03:02:37;;;;;;;6.30;2.78;;;;;;;7.05;100.00;99833.59;5001960;28;20041;-65
2023/10/25 03:05:03;;;;;;;7.35;2.92;;;;;;;7.05;100.00;99833.59;5004019;28;20057;-67
2023/10/25 03:07:28;;;;;;;6.05;3.33;;;;;;;7.04;100.00;99837.84;5009142;28;20056;-67
2023/10/25 03:09:54;;;;;;;6.53;3.22;;;;;;;7.05;100.00;99829.28;5009347;28;20040;-65
2023/10/25 03:12:19;;;;;;;6.57;2.97;;;;;;;7.07;100.00;99826.75;5008853;28;20180;-65
2023/10/25 03:14:45;;;;;;;5.43;3.30;;;;;;;7.08;100.00;99813.06;4999336;28;20045;-67
2023/10/25 03:17:10;;;;;;;6.05;2.88;;;;;;;7.07;100.00;99812.19;5013665;28;20443;-67
2023/10/25 03:19:36;;;;;;;4.97;3.15;;;;;;;7.09;100.00;99812.22;5013749;28;20113;-66
2023/10/25 03:22:03;;;;;;;5.53;3.00;;;;;;;7.10;100.00;99801.09;5003609;28;20034;-67
2023/10/25 03:24:29;;;;;;;8.52;3.30;;;;;;;7.11;100.00;99802.84;5002548;28;20049;-66
2023/10/25 03:26:54;;;;;;;6.47;2.95;;;;;;;7.12;100.00;99804.59;5012797;28;20059;-66
2023/10/25 03:29:20;;;;;;;4.65;3.13;;;;;;;7.13;100.00;99801.19;5001558;28;20024;-67
2023/10/25 03:31:45;;;;;;;7.00;3.47;;;;;;;7.14;100.00;99805.50;5011428;28;20033;-66
2023/10/25 03:34:10;;;;;;;7.57;3.65;;;;;;;7.15;100.00;99799.53;5008167;28;20045;-67
2023/10/25 03:36:36;;;;;;;7.07;4.10;;;;;;;7.16;100.00;99798.69;5015400;28;20029;-67
2023/10/25 03:39:01;;;;;;;5.72;3.20;;;;;;;7.18;100.00;99797.03;5012818;28;20022;-66
2023/10/25 03:41:26;;;;;;;6.20;3.30;;;;;;;7.17;100.00;99800.47;4997020;28;20077;-66
2023/10/25 03:43:52;;;;;;;6.93;3.40;;;;;;;7.18;100.00;99794.47;5008652;28;20481;-67
2023/10/25 03:46:17;;;;;;;7.43;4.15;;;;;;;7.20;100.00;99797.97;5008962;28;20034;-65
2023/10/25 03:48:42;;;;;;;6.55;3.80;;;;;;;7.20;100.00;99787.66;5007680;28;20034;-67
2023/10/25 03:51:08;;;;;;;10.77;3.65;;;;;;;7.20;100.00;99779.94;5007402;28;20096;-66
2023/10/25 03:53:34;;;;;;;13.18;5.05;;;;;;;7.23;100.00;99791.16;5007612;28;20116;-67
2023/10/25 03:55:59;;;;;;;10.85;4.55;;;;;;;7.23;100.00;99784.31;5001222;28;20026;-66
2023/10/25 03:58:25;;;;;;;9.63;4.10;;;;;;;7.23;100.00;99780.84;4989442;28;20038;-67
2023/10/25 04:01:00;;;;;;;12.07;4.45;;;;;;;7.25;100.00;99779.19;5008770;28;20410;-67
2023/10/25 04:03:26;;;;;;;8.40;4.13;;;;;;;7.24;100.00;99780.88;5007887;28;20026;-67
2023/10/25 04:05:52;;;;;;;9.93;4.57;;;;;;;7.27;100.00;99782.66;5007705;28;20037;-67
2023/10/25 04:08:17;;;;;;;13.50;5.20;;;;;;;7.27;100.00;99777.50;5006354;28;20039;-66
2023/10/25 04:10:48;;;;;;;10.35;5.00;;;;;;;7.25;100.00;99777.47;5008367;28;20529;-66
2023/10/25 04:13:14;;;;;;;;;;;;;;;7.26;100.00;99786.97;5008489;28;20018;-67
2023/10/25 04:15:39;;;;;;;10.60;4.28;;;;;;;7.26;100.00;99776.66;4997264;28;19921;-66
2023/10/25 04:18:09;;;;;;;10.15;5.03;;;;;;;7.26;100.00;99765.47;5007486;28;20088;-67
2023/10/25 04:20:34;;;;;;;10.55;5.18;;;;;;;7.26;100.00;99773.19;5005805;28;20022;-65
2023/10/25 04:22:59;;;;;;;9.50;5.75;;;;;;;7.26;100.00;99771.50;4996470;28;20032;-66
2023/10/25 04:25:24;;;;;;;9.85;5.47;;;;;;;7.27;100.00;99769.78;5007566;28;20106;-65
2023/10/25 04:27:50;;;;;;;9.63;4.70;;;;;;;7.27;100.00;99767.19;5008549;28;20029;-67
2023/10/25 04:30:15;;;;;;;9.93;4.90;;;;;;;7.26;100.00;99766.34;4996177;28;20030;-66
2023/10/25 04:32:40;;;;;;;8.85;5.07;;;;;;;7.28;100.00;99758.66;5007931;28;20034;-66
2023/10/25 04:35:06;;;;;;;6.70;4.78;;;;;;;7.30;100.00;99757.84;5014118;28;20022;-65
2023/10/25 04:37:31;;;;;;;9.85;4.25;;;;;;;7.30;100.00;99757.00;5014278;28;20334;-66
2023/10/25 04:39:56;;;;;;;8.98;5.32;;;;;;;7.31;100.00;99756.16;5008151;28;20033;-65
2023/10/25 04:42:22;;;;;;;9.32;4.40;;;;;;;7.33;100.00;99751.91;5009285;28;20044;-65
2023/10/25 04:44:47;;;;;;;13.07;4.47;;;;;;;7.34;100.00;99748.50;5010013;28;20084;-66
2023/10/25 04:47:13;;;;;;;7.55;4.20;;;;;;;7.35;100.00;99755.41;5003108;28;20470;-65
2023/10/25 04:49:39;;;;;;;11.55;4.70;;;;;;;7.36;100.00;99746.84;5010341;28;20022;-67
2023/10/25 04:52:04;;;;;;;7.95;4.05;;;;;;;7.37;100.00;99743.47;5007230;28;20036;-67
2023/10/25 04:54:29;;;;;;;7.93;4.28;;;;;;;7.37;100.00;99737.41;5007193;28;20052;-67
2023/10/25 04:56:57;;;;;;;7.30;4.35;;;;;;;7.37;100.00;99733.16;5006692;28;20037;-66
2023/10/25 04:59:22;;;;;;;6.47;3.75;;;;;;;7.39;100.00;99736.63;5007630;28;20471;-66
2023/10/25 05:01:48;;;;;;;8.23;4.00;;;;;;;7.41;100.00;99729.78;5022458;28;20030;-66
2023/10/25 05:04:13;;;;;;;5.30;3.72;;;;;;;7.42;100.00;99718.66;5016071;28;20914;-66
2023/10/25 05:06:38;;;;;;;7.25;4.30;;;;;;;7.44;100.00;99713.56;5011942;28;20410;-65
2023/10/25 05:09:04;;;;;;;7.63;3.67;;;;;;;7.43;100.00;99706.63;4989165;28;20120;-65
2023/10/25 05:11:33;;;;;;;6.85;3.83;;;;;;;7.43;100.00;99712.69;5024601;28;20495;-67
2023/10/25 05:13:58;;;;;;;6.82;3.75;;;;;;;7.44;100.00;99714.44;5018171;28;20022;-67
2023/10/25 05:16:27;;;;;;;7.85;4.47;;;;;;;7.43;100.00;99706.63;5023471;28;20025;-65
2023/10/25 05:18:52;;;;;;;8.77;4.00;;;;;;;7.44;100.00;99704.13;5019029;28;20037;-67
2023/10/25 05:21:19;;;;;;;9.73;3.75;;;;;;;7.45;100.00;99694.66;5014243;28;20014;-66
2023/10/25 05:23:44;;;;;;;7.80;3.97;;;;;;;7.46;100.00;99696.44;5013383;28;20029;-66
2023/10/25 05:26:10;;;;;;;6.80;4.00;;;;;;;7.47;100.00;99687.84;5014182;28;20052;-66
2023/10/25 05:28:35;;;;;;;4.80;3.95;;;;;;;7.49;100.00;99685.31;5020829;28;20390;-67
2023/10/25 05:31:03;;;;;;;8.38;4.05;;;;;;;7.48;100.00;99684.47;5014538;28;20107;-67
2023/10/25 05:33:31;;;;;;;6.72;3.80;;;;;;;7.50;100.00;99687.06;5023569;28;20025;-65
2023/10/25 05:35:57;;;;;;;6.10;4.30;;;;;;;7.50;100.00;99684.50;5015529;28;20760;-67
2023/10/25 05:38:23;;;;;;;8.02;3.80;;;;;;;7.50;100.00;99677.63;5024245;28;20029;-66
2023/10/25 05:40:51;;;;;;;6.50;4.03;;;;;;;7.51;100.00;99679.38;5016266;28;20030;-65
2023/10/25 05:43:23;;;;;;;9.07;3.80;;;;;;;7.53;100.00;99672.56;5013671;28;20072;-67
2023/10/25 05:45:48;;;;;;;10.55;4.65;;;;;;;7.54;100.00;99670.84;5010135;28;20034;-66
2023/10/25 05:48:15;;;;;;;7.78;3.70;;;;;;;7.54;100.00;99669.13;5006139;28;20076;-67
2023/10/25 05:50:44;;;;;;;10.77;4.50;;;;;;;7.55;100.00;99668.31;5002444;28;20121;-67
2023/10/25 05:53:11;;;;;;;6.25;4.25;;;;;;;7.55;100.00;99660.59;5004701;28;20042;-66
2023/10/25 05:55:37;;;;;;;6.95;3.75;;;;;;;7.58;100.00;99662.34;5009618;28;20028;-65
2023/10/25 05:58:02;;;;;;;5.03;3.85;;;;;;;7.58;100.00;99659.78;5016438;28;20026;-66
2023/10/25 06:00:28;;;;;;;9.18;4.00;;;;;;;7.59;100.00;99661.50;5011860;28;20040;-66
2023/10/25 06:02:55;;;;;;;7.63;4.32;;;;;;;7.59;100.00;99650.34;5016880;28;20029;-64
2023/10/25 06:05:23;;;;;;;6.97;4.07;;;;;;;7.61;100.00;99651.25;5010263;28;20045;-66
2023/10/25 06:07:49;;;;;;;6.85;4.22;;;;;;;7.60;100.00;99652.94;5012264;28;20035;-65
2023/10/25 06:10:14;;;;;;;9.65;3.97;;;;;;;7.61;100.00;99654.69;5012179;28;20057;-67
2023/10/25 06:12:40;;;;;;;9.07;4.53;;;;;;;7.61;100.00;99652.09;5011212;28;20049;-66
2023/10/25 06:15:06;;;;;;;6.30;3.55;;;;;;;7.62;100.00;99650.41;5014222;28;20149;-67
2023/10/25 06:17:33;;;;;;;9.05;4.22;;;;;;;7.63;100.00;99653.03;4999269;28;20112;-66
2023/10/25 06:19:58;;;;;;;6.63;4.00;;;;;;;7.64;100.00;99648.75;5007414;28;20474;-66
2023/10/25 06:22:24;;;;;;;6.70;3.78;;;;;;;7.65;100.00;99648.78;5005269;28;20045;-67
2023/10/25 06:24:49;;;;;;;5.30;3.35;;;;;;;7.65;100.00;99635.00;4992549;28;20156;-66
2023/10/25 06:27:14;;;;;;;7.90;3.80;;;;;;;7.66;100.00;99640.19;5018281;28;20034;-66
2023/10/25 06:29:39;;;;;;;6.70;3.25;;;;;;;7.68;100.00;99635.94;4997253;28;20026;-65
2023/10/25 06:32:05;;;;;;;5.10;3.03;;;;;;;7.72;100.00;99628.31;5002228;28;20038;-66
2023/10/25 06:34:30;;;;;;;6.63;2.92;;;;;;;7.71;100.00;99627.44;5014262;28;20197;-66
2023/10/25 06:36:56;;;;;;;8.48;3.47;;;;;;;7.74;100.00;99616.31;4997673;28;20029;-66
2023/10/25 06:39:22;;;;;;;4.03;3.47;;;;;;;7.75;100.00;99613.78;5009351;28;20434;-65
2023/10/25 06:41:47;;;;;;;6.45;2.80;;;;;;;7.79;100.00;99606.97;5021413;28;20576;-66
2023/10/25 06:44:13;;;;;;;8.15;3.25;;;;;;;7.76;100.00;99606.91;5001350;28;20063;-66
2023/10/25 06:46:39;;;;;;;4.10;2.72;;;;;;;7.77;100.00;99603.50;5013309;28;20105;-64
2023/10/25 06:49:04;;;;;;;5.13;2.47;;;;;;;7.81;100.00;99594.97;5001198;28;20096;-67
2023/10/25 06:51:30;;;;;;;5.82;2.60;;;;;;;7.83;100.00;99597.59;5019037;28;20033;-67
2023/10/25 06:53:56;;;;;;;6.70;2.85;;;;;;;7.84;100.00;99589.91;5002441;28;20071;-65
2023/10/25 06:56:22;;;;;;;7.88;2.50;;;;;;;7.83;100.00;99588.16;5006781;28;20034;-67
2023/10/25 06:58:48;;;;;;;5.60;2.80;;;;;;;7.85;100.00;99586.50;5011984;28;20057;-66
2023/10/25 07:01:18;;;;;;;7.43;3.20;;;;;;;7.84;100.00;99577.03;5008141;28;20450;-64
2023/10/25 07:03:48;;;;;;;6.95;2.97;;;;;;;7.86;100.00;99579.63;5002845;28;20028;-66
2023/10/25 07:06:15;;;;;;;2.95;2.67;;;;;;;7.86;100.00;99577.91;5010045;28;20053;-67
2023/10/25 07:08:41;;;;;;;9.00;2.97;;;;;;;7.89;100.00;99567.69;5009069;28;20102;-65
2023/10/25 07:11:07;;;;;;;7.53;3.30;;;;;;;7.90;100.00;99564.25;5007237;28;20534;-67
2023/10/25 07:13:32;;;;;;;8.32;3.10;;;;;;;7.92;100.00;99565.16;5009057;28;20027;-66
2023/10/25 07:15:59;;;;;;;5.35;2.83;;;;;;;7.94;100.00;99557.44;4997442;28;20028;-66
2023/10/25 07:18:24;;;;;;;7.22;2.88;;;;;;;7.96;100.00;99560.06;4997529;28;20026;-66
2023/10/25 07:20:53;;;;;;;8.75;3.10;;;;;;;7.97;100.00;99554.09;5017495;28;20083;-66
2023/10/25 07:23:18;;;;;;;7.90;3.55;;;;;;;7.98;100.00;99546.38;4996335;28;20605;-65
2023/10/25 07:25:44;;;;;;;9.98;3.03;;;;;;;7.99;100.00;99548.09;5001798;28;20027;-66
2023/10/25 07:28:09;;;;;;;6.28;3.30;;;;;;;8.02;100.00;99547.31;4990874;28;20052;-66
2023/10/25 07:30:35;;;;;;;6.15;2.60;;;;;;;8.03;100.00;99549.03;5004492;28;20552;-65
2023/10/25 07:33:00;;;;;;;4.85;2.65;;;;;;;8.04;100.00;99549.06;5004402;28;20064;-67
2023/10/25 07:35:25;;;;;;;5.75;3.10;;;;;;;8.06;100.00;99554.25;5008582;28;20013;-67
2023/10/25 07:37:51;;;;;;;4.75;2.80;;;;;;;8.06;100.00;99549.09;5008301;28;20441;-67
2023/10/25 07:40:16;;;;;;;5.47;3.03;;;;;;;8.08;100.00;99544.84;5009356;28;20026;-66
2023/10/25 07:42:41;;;;;;;6.15;2.63;;;;;;;8.10;100.00;99538.00;5006791;28;20060;-66
2023/10/25 07:45:07;;;;;;;6.72;2.85;;;;;;;8.11;100.00;99536.31;5021790;28;20025;-67
2023/10/25 07:47:32;;;;;;;5.20;3.40;;;;;;;8.11;100.00;99529.41;5009802;28;20026;-66
2023/10/25 07:49:58;;;;;;;5.40;3.10;;;;;;;8.13;100.00;99527.75;4993490;28;20030;-66
2023/10/25 07:52:25;;;;;;;3.17;2.70;;;;;;;8.14;100.00;99526.06;4997322;28;20013;-66
2023/10/25 07:54:50;;;;;;;6.35;3.35;;;;;;;8.15;100.00;99528.66;5006311;28;20094;-66
2023/10/25 07:57:15;;;;;;;3.38;2.95;;;;;;;8.17;100.00;99516.66;5001663;28;20482;-66
2023/10/25 07:59:41;;;;;;;6.30;3.40;;;;;;;8.21;100.00;99511.56;4999218;28;20022;-66
2023/10/25 08:02:06;;;;;;;9.20;4.50;;;;;;;8.23;100.00;99502.13;5012167;28;20022;-65
2023/10/25 08:04:31;;;;;;;4.70;3.10;;;;;;;8.21;100.00;99496.94;5001689;28;20033;-66
2023/10/25 08:06:57;;;;;;;5.60;3.05;;;;;;;8.23;100.00;99490.13;5007140;28;20034;-66
2023/10/25 08:09:22;;;;;;;5.78;3.47;;;;;;;8.26;100.00;99490.16;5021632;28;20202;-66
2023/10/25 08:11:48;;;;;;;3.88;3.25;;;;;;;8.28;100.00;99487.63;4988354;28;20036;-67
2023/10/25 08:14:13;;;;;;;7.47;3.80;;;;;;;8.32;100.00;99483.38;5014043;28;20033;-64
2023/10/25 08:16:42;;;;;;;7.43;3.67;;;;;;;8.35;100.00;99484.31;5019307;28;20390;-66
2023/10/25 08:19:10;;;;;;;5.32;3.35;;;;;;;8.34;100.00;99474.84;5004757;28;20422;-66
2023/10/25 08:21:36;;;;;;;7.88;2.90;;;;;;;8.34;100.00;99472.25;4997668;28;20092;-66
2023/10/25 08:24:05;;;;;;;5.85;3.00;;;;;;;8.35;100.00;99474.00;4990390;28;20952;-64
2023/10/25 08:26:34;;;;;;;5.35;3.30;;;;;;;8.37;100.00;99469.72;5008392;28;20108;-65
2023/10/25 08:29:00;;;;;;;4.00;2.80;;;;;;;8.41;100.00;99461.22;5009507;28;20021;-67
2023/10/25 08:31:25;;;;;;;4.43;3.10;;;;;;;8.46;100.00;99465.56;4997713;28;20076;-66
2023/10/25 08:33:50;;;;;;;5.78;3.17;;;;;;;8.47;100.00;99457.00;4995116;28;20252;-65
2023/10/25 08:36:16;;;;;;;5.85;3.42;;;;;;;8.51;100.00;99466.53;4998187;28;20017;-66
2023/10/25 08:38:41;;;;;;;5.05;2.60;;;;;;;8.49;100.00;99455.31;5014891;28;20039;-66
2023/10/25 08:41:07;;;;;;;7.25;2.58;;;;;;;8.52;100.00;99450.22;5006163;28;20038;-66
2023/10/25 08:43:34;;;;;;;5.97;3.03;;;;;;;8.55;100.00;99455.41;5006684;28;20022;-66
2023/10/25 08:46:01;;;;;;;3.67;2.30;;;;;;;8.56;100.00;99446.88;5008714;28;20026;-67
2023/10/25 08:48:28;;;;;;;4.43;2.90;;;;;;;8.55;100.00;99439.03;5014815;28;20075;-66
2023/10/25 08:50:55;;;;;;;3.72;2.90;;;;;;;8.57;100.00;99432.25;5020432;28;20503;-67
2023/10/25 08:53:23;;;;;;;4.05;2.60;;;;;;;8.59;100.00;99430.56;5021057;28;20040;-67
2023/10/25 08:55:52;;;;;;;5.82;2.83;;;;;;;8.59;100.00;99431.44;5006868;28;20469;-66
2023/10/25 08:58:23;;;;;;;4.85;2.58;;;;;;;8.61;100.00;99427.19;5009501;28;20390;-67
2023/10/25 09:00:50;;;;;;;6.07;2.67;;;;;;;8.60;100.00;99424.56;5010374;28;20494;-67
2023/10/25 09:03:38;;;;;;;4.35;3.28;;;;;;;8.61;100.00;99419.44;5006475;28;20025;-67
2023/10/25 09:06:05;;;;;;;3.95;3.50;;;;;;;8.63;100.00;99412.53;5014873;28;20493;-67
2023/10/25 09:08:31;;;;;;;5.07;2.88;;;;;;;8.65;100.00;99404.84;5010448;28;20033;-66
2023/10/25 09:11:02;;;;;;;4.97;3.20;;;;;;;8.66;100.00;99404.00;5005585;28;20508;-65
2023/10/25 09:13:32;;;;;;;7.45;4.15;;;;;;;8.66;100.00;99396.25;5003281;28;20241;-66
2023/10/25 09:16:11;;;;;;;4.05;3.60;;;;;;;8.67;100.00;99397.13;5004691;28;20021;-66
2023/10/25 09:18:39;;;;;;;5.50;4.13;;;;;;;8.67;100.00;99397.97;5007399;28;21340;-67
2023/10/25 09:21:06;;;;;;;6.32;3.80;;;;;;;8.67;100.00;99390.22;5003318;28;20049;-66
2023/10/25 09:23:35;;;;;;;6.25;3.88;;;;;;;8.62;100.00;99382.41;4992764;28;20030;-67
2023/10/25 09:26:15;;;;;;;7.03;3.95;;;;;;;8.62;100.00;99382.41;5002377;28;20037;-67
2023/10/25 09:28:41;;;;;;;8.45;4.45;;;;;;;8.64;100.00;99392.75;5009842;28;20060;-66
2023/10/25 09:31:20;;;;;;;6.40;4.25;;;;;;;8.62;100.00;99413.41;5007213;28;20486;-67
2023/10/25 09:33:46;;;;;;;5.25;4.20;;;;;;;8.62;100.00;99399.63;5001845;28;20597;-65
2023/10/25 09:36:13;;;;;;;9.38;5.50;;;;;;;8.61;100.00;99384.97;5010811;28;20111;-67
2023/10/25 09:38:38;;;;;;;5.65;5.15;;;;;;;8.59;100.00;99379.78;5026766;28;20023;-65
2023/10/25 09:41:06;;;;;;;5.78;5.25;;;;;;;8.59;100.00;99374.63;5021923;28;20049;-66
2023/10/25 09:43:32;;;;;;;6.53;5.50;;;;;;;8.59;100.00;99368.59;5006915;28;20026;-67
2023/10/25 09:46:02;;;;;;;7.15;5.72;;;;;;;8.58;100.00;99367.72;5018716;28;20018;-65
2023/10/25 09:48:30;;;;;;;6.43;5.82;;;;;;;8.58;100.00;99354.78;5020811;28;20021;-67
2023/10/25 09:51:20;;;;;;;8.90;5.85;;;;;;;8.59;100.00;99347.94;5018382;28;20049;-66
2023/10/25 09:53:57;;;;;;;6.88;5.90;;;;;;;8.59;100.00;99345.34;4995558;28;20129;-66
2023/10/25 09:56:23;;;;;;;7.30;6.22;;;;;;;8.58;100.00;99336.72;5007085;28;20021;-67
2023/10/25 09:58:50;;;;;;;7.57;6.10;;;;;;;8.55;100.00;99336.66;5012017;28;20021;-66
2023/10/25 10:01:15;;;;;;;7.65;6.75;;;;;;;8.56;100.00;99343.59;5011897;28;20238;-66
2023/10/25 10:03:49;;;;;;;9.05;8.00;;;;;;;8.53;100.00;99338.31;5009005;28;20480;-65
2023/10/25 10:06:37;;;;;;;10.25;7.28;;;;;;;8.55;100.00;99340.94;5011341;28;20152;-66
2023/10/25 10:09:02;;;;;;;8.65;6.75;;;;;;;8.51;100.00;99334.84;5010403;28;20401;-66
2023/10/25 10:11:39;;;;;;;8.45;7.65;;;;;;;8.51;100.00;99334.84;5006082;28;20029;-65
2023/10/25 10:14:27;;;;;;;13.65;6.88;;;;;;;8.49;100.00;99327.06;5006778;28;20025;-67
2023/10/25 10:17:14;;;;;;;7.88;7.18;;;;;;;8.52;100.00;99321.13;5009434;28;20034;-67
2023/10/25 10:19:42;;;;;;;8.20;7.07;;;;;;;8.53;100.00;99307.34;5010309;28;20501;-66
2023/10/25 10:22:18;;;;;;;9.85;7.88;;;;;;;8.55;100.00;99300.50;5011124;28;20395;-66
2023/10/25 10:24:44;;;;;;;7.68;6.97;;;;;;;8.58;100.00;99297.13;5001182;28;20466;-67
2023/10/25 10:27:15;;;;;;;12.13;7.20;;;;;;;8.56;100.00;99286.78;5010341;28;20026;-66
2023/10/25 10:29:42;;;;;;;8.38;7.55;;;;;;;8.57;100.00;99273.03;5008889;28;20026;-66
2023/10/25 10:32:09;;;;;;;9.73;7.05;;;;;;;8.57;100.00;99278.19;5009149;28;20037;-66
2023/10/25 10:34:41;;;;;;;8.43;7.38;;;;;;;8.57;100.00;99273.03;5011113;28;20030;-66
2023/10/25 10:37:14;;;;;;;7.60;6.57;;;;;;;8.59;100.00;99260.13;5016733;28;20030;-67
2023/10/25 10:39:58;;;;;;;10.00;7.15;;;;;;;8.58;100.00;99259.25;5010166;28;20445;-66
2023/10/25 10:42:29;;;;;;;8.43;6.75;;;;;;;8.60;100.00;99247.25;5007083;28;20076;-67
2023/10/25 10:44:58;;;;;;;11.27;7.35;;;;;;;8.61;100.00;99251.56;5011203;28;20025;-66
2023/10/25 10:47:41;;;;;;;9.25;6.43;;;;;;;8.61;100.00;99240.38;5002774;28;20430;-66
2023/10/25 10:50:10;;;;;;;8.38;6.43;;;;;;;8.61;100.00;99241.25;5008851;28;20459;-66
2023/10/25 10:52:36;;;;;;;8.43;6.88;;;;;;;8.62;100.00;99240.38;5005814;28;20132;-66
2023/10/25 10:55:02;;;;;;;7.93;7.10;;;;;;;8.64;100.00;99230.06;5013065;28;20478;-65
2023/10/25 10:57:27;;;;;;;9.45;6.78;;;;;;;8.63;100.00;99221.44;5005985;28;20447;-66
2023/10/25 10:59:55;;;;;;;7.50;6.70;;;;;;;8.65;100.00;99224.09;5005822;28;20022;-67
2023/10/25 11:02:20;;;;;;;8.38;6.25;;;;;;;8.67;100.00;99211.19;5005489;28;20057;-67
2023/10/25 11:04:45;;;;;;;7.85;7.10;;;;;;;8.69;100.00;99207.75;5006516;28;20057;-66
2023/10/25 11:07:10;;;;;;;7.25;6.55;;;;;;;8.71;100.00;99215.53;5009048;28;20037;-67
2023/10/25 11:09:36;;;;;;;6.68;6.18;;;;;;;8.69;100.00;99205.19;5005178;28;20473;-67
2023/10/25 11:12:12;;;;;;;6.70;5.53;;;;;;;8.71;100.00;99189.69;5004691;28;20114;-67
2023/10/25 11:14:45;;;;;;;10.48;6.47;;;;;;;8.72;100.00;99188.88;5008775;28;20030;-67
2023/10/25 11:17:12;;;;;;;6.95;5.63;;;;;;;8.73;100.00;99190.59;5008725;28;20030;-66
2023/10/25 11:19:37;;;;;;;6.05;5.28;;;;;;;8.75;100.00;99174.28;5008993;28;20036;-66
2023/10/25 11:22:03;;;;;;;6.50;5.80;;;;;;;8.77;100.00;99174.31;4996076;28;20018;-67
2023/10/25 11:24:29;;;;;;;6.40;5.47;;;;;;;8.78;100.00;99168.28;5002142;28;20109;-66
2023/10/25 11:26:55;;;;;;;6.82;5.88;;;;;;;8.79;100.00;99175.19;4999321;28;20482;-66
2023/10/25 11:29:23;;;;;;;8.35;5.82;;;;;;;8.78;100.00;99165.69;5016600;28;20021;-67